Wetterdaten: Juni 2008
Datum Temp Feuchte Luftdruck Regen Wind Richtung Sonnenschein UV Solar Windben
01.06.2008 18,9 C 77 % 1014,8 hPa 0,0 l/m 0,4 km/h O 6,75 h 3,2 UV-I 370 W/m 2,0 km/h
02.06.2008 22,7 C 69 % 1010,9 hPa 0,0 l/m 0,5 km/h O 10,67 h 3,4 UV-I 442 W/m 2,0 km/h
03.06.2008 18,9 C 83 % 1011,3 hPa 0,4 l/m 1,0 km/h NW 4,33 h 2,4 UV-I 260 W/m 4,8 km/h
04.06.2008 16,8 C 94 % 1014,1 hPa 5,0 l/m 0,5 km/h NW 0,00 h 1,3 UV-I 124 W/m 2,8 km/h
05.06.2008 18,0 C 65 % 1013,8 hPa 0,0 l/m 0,2 km/h O 10,08 h 3,4 UV-I 423 W/m 1,2 km/h
06.06.2008 17,5 C 62 % 1013,0 hPa 0,0 l/m 0,2 km/h O 9,58 h 3,4 UV-I 427 W/m 0,4 km/h
07.06.2008 18,8 C 69 % 1014,8 hPa 0,0 l/m 3,4 km/h N-NO 8,58 h 3,0 UV-I 408 W/m 9,3 km/h
08.06.2008 18,6 C 63 % 1019,2 hPa 0,0 l/m 2,3 km/h N-NO 11,67 h 3,7 UV-I 476 W/m 6,8 km/h
09.06.2008 20,2 C 54 % 1021,0 hPa 0,0 l/m 5,7 km/h N-NO 12,83 h 3,9 UV-I 495 W/m 10,1 km/h
10.06.2008 19,6 C 64 % 1017,9 hPa 0,0 l/m 7,6 km/h N-NW 11,17 h 3,8 UV-I 461 W/m 16,5 km/h
11.06.2008 13,4 C 70 % 1016,3 hPa 0,0 l/m 6,8 km/h N-NW 3,52 h 2,5 UV-I 251 W/m 16,1 km/h
12.06.2008 10,6 C 85 % 1011,6 hPa 11,0 l/m 3,6 km/h NW 1,50 h 2,2 UV-I 185 W/m 10,5 km/h
13.06.2008 8,9 C 90 % 1014,0 hPa 5,4 l/m 4,1 km/h N-NW 4,08 h 2,7 UV-I 285 W/m 10,1 km/h
14.06.2008 9,1 C 89 % 1013,9 hPa 0,4 l/m 2,5 km/h S 3,67 h 2,3 UV-I 256 W/m 6,4 km/h
15.06.2008 10,9 C 86 % 1009,5 hPa 2,0 l/m 6,5 km/h S 6,40 h 2,5 UV-I 341 W/m 11,6 km/h
16.06.2008 12,0 C 72 % 1010,4 hPa 0,0 l/m 2,7 km/h N-NW 8,83 h 3,2 UV-I 425 W/m 7,2 km/h
17.06.2008 13,5 C 72 % 1013,5 hPa 0,0 l/m 0,7 km/h S-SO 8,35 h 2,8 UV-I 366 W/m 1,6 km/h
18.06.2008 16,3 C 68 % 1014,9 hPa 0,0 l/m 1,6 km/h S 11,10 h 3,3 UV-I 429 W/m 4,0 km/h
19.06.2008 15,8 C 78 % 1012,1 hPa 8,4 l/m 4,9 km/h S 3,48 h 2,9 UV-I 267 W/m 9,6 km/h
20.06.2008 15,3 C 67 % 1018,3 hPa 0,2 l/m 6,6 km/h S 7,08 h 3,1 UV-I 345 W/m 15,3 km/h
21.06.2008 16,6 C 73 % 1019,9 hPa 0,4 l/m 4,3 km/h S 6,68 h 4,0 UV-I 385 W/m 8,8 km/h
22.06.2008 20,3 C 81 % 1012,8 hPa 7,6 l/m 9,7 km/h S 7,25 h 3,5 UV-I 367 W/m 18,9 km/h
23.06.2008 15,7 C 66 % 1018,0 hPa 0,0 l/m 7,7 km/h S 11,50 h 4,0 UV-I 480 W/m 14,9 km/h
24.06.2008 16,5 C 62 % 1018,1 hPa 0,0 l/m 4,1 km/h N-NO 13,00 h 4,2 UV-I 497 W/m 10,4 km/h
25.06.2008 19,5 C 69 % 1013,7 hPa 0,8 l/m 7,1 km/h S 4,00 h 2,6 UV-I 259 W/m 16,5 km/h
26.06.2008 17,5 C 63 % 1018,4 hPa 0,0 l/m 3,8 km/h S 12,58 h 4,3 UV-I 573 W/m 9,7 km/h
27.06.2008 15,8 C 64 % 1016,7 hPa 0,8 l/m 6,8 km/h S 5,18 h 2,9 UV-I 320 W/m 14,9 km/h
28.06.2008 16,1 C 85 % 1017,3 hPa 1,6 l/m 4,7 km/h S 1,83 h 1,5 UV-I 149 W/m 6,0 km/h
29.06.2008 18,0 C 68 % 1016,7 hPa 0,0 l/m 5,2 km/h S 9,82 h 4,0 UV-I 435 W/m 16,1 km/h
30.06.2008 17,0 C 65 % 1020,2 hPa 0,0 l/m 2,5 km/h NW 10,00 h 3,8 UV-I 443 W/m 5,3 km/h
Min-Datum 17.06.08 08.06.08 03.06.08 13 Tage 01.06.08 - - - - 01.06.08
Min-Zeit 05:05 16:13 02:00 - 00:00 - - - - 00:00
Minimum 4,2 C 33 % 1007,8 hPa - 0,0 km/h - - - - 0,0 km/h
Max-Datum 22.06.08 13.06.08 10.06.08 12.06.08 27.06.08 - 24.06.08 30.06.08 15.06.08 22.06.08
Max-Zeit 16:55 07:05 00:14 23:10 13:35 - 20:10 13:10 13:35 19:25
Maximum 28,6 C 100 % 1021,8 hPa 11,0 l/m 37,0 km/h
S
- 12,92 h 8,6 UV-I 1229 W/m 53,1 km/h
S
Durchschnitt 16,3 C 72 % 1015,2 hPa #44,0 l/m 3,9 km/h S #225:32 h 3,1 UV-I 365 W/m 9,0 km/h

Durchschnitt Minimum Temp.10,7 C
Durchschnitt Maximum Temp.21,8 C